createdAt,value
2023-03-26T00:00:03.998Z,95060.3
2023-03-26T00:01:06.119Z,95062.8
2023-03-26T00:02:08.575Z,95061.8
2023-03-26T00:03:11.061Z,95064.5
2023-03-26T00:04:13.211Z,95064
2023-03-26T00:05:15.523Z,95062
2023-03-26T00:06:17.532Z,95063
2023-03-26T00:07:19.655Z,95052.3
2023-03-26T00:08:21.588Z,95056.8
2023-03-26T00:09:23.538Z,95051.6
2023-03-26T00:10:25.440Z,95050.7
2023-03-26T00:11:27.675Z,95057.4
2023-03-26T00:12:29.839Z,95065.4
2023-03-26T00:13:31.871Z,95066.1
2023-03-26T00:14:33.866Z,95070
2023-03-26T00:15:36.005Z,95065.7
2023-03-26T00:16:38.251Z,95057.6
2023-03-26T00:17:40.684Z,95061.6
2023-03-26T00:18:42.930Z,95052.6
2023-03-26T00:19:45.053Z,95050.7
2023-03-26T00:20:47.138Z,95049.7
2023-03-26T00:21:49.234Z,95046.8
2023-03-26T00:22:51.197Z,95050
2023-03-26T00:23:53.339Z,95053.3
2023-03-26T00:24:55.474Z,95053.8
2023-03-26T00:25:57.819Z,95059.8
2023-03-26T00:26:59.797Z,95052.5
2023-03-26T00:28:01.973Z,95046
2023-03-26T00:29:04.596Z,95051.8
2023-03-26T00:30:06.677Z,95049.5
2023-03-26T00:31:08.831Z,95051.3
2023-03-26T00:32:10.673Z,95050.8
2023-03-26T00:33:12.722Z,95055.9
2023-03-26T00:34:14.657Z,95054.9
2023-03-26T00:35:16.576Z,95054.5
2023-03-26T00:36:18.472Z,95052.6
2023-03-26T00:37:20.391Z,95052.5
2023-03-26T00:38:22.278Z,95050.3
2023-03-26T00:39:24.625Z,95047.2
2023-03-26T00:40:26.369Z,95045.6
2023-03-26T00:41:28.475Z,95049.2
2023-03-26T00:42:30.603Z,95046.9
2023-03-26T00:43:32.502Z,95046.1
2023-03-26T00:44:34.395Z,95056.3
2023-03-26T00:45:36.270Z,95054.9
2023-03-26T00:46:38.388Z,95050
2023-03-26T00:47:40.406Z,95038.5
2023-03-26T00:49:47.516Z,95028.9
2023-03-26T00:50:49.612Z,95028.1
2023-03-26T00:51:51.777Z,95027.9
2023-03-26T00:52:53.522Z,95038.4
2023-03-26T00:53:55.689Z,95037
2023-03-26T00:54:57.824Z,95033.6
2023-03-26T00:55:59.777Z,95035.4
2023-03-26T00:57:02.219Z,95031
2023-03-26T00:58:04.406Z,95025.6
2023-03-26T00:59:06.631Z,95032.2
2023-03-26T01:00:08.793Z,95043.6
2023-03-26T01:01:11.156Z,95041.2
2023-03-26T01:02:13.568Z,95036.7
2023-03-26T01:04:21.484Z,95031.5
2023-03-26T01:05:24.217Z,95030.5
2023-03-26T01:06:26.212Z,95034.1
2023-03-26T01:07:28.383Z,95035.2
2023-03-26T01:08:30.544Z,95041.1
2023-03-26T01:09:32.658Z,95039.2
2023-03-26T01:10:34.675Z,95034.8
2023-03-26T01:11:36.837Z,95034.3
2023-03-26T01:12:38.983Z,95036.2
2023-03-26T01:13:41.108Z,95035.4
2023-03-26T01:14:43.228Z,95035.9
2023-03-26T01:15:45.453Z,95037.3
2023-03-26T01:16:47.492Z,95035.4
2023-03-26T01:17:49.645Z,95035.3
2023-03-26T01:18:51.628Z,95040.4
2023-03-26T01:19:53.577Z,95039.3
2023-03-26T01:20:55.723Z,95040.7
2023-03-26T01:21:57.857Z,95047
2023-03-26T01:23:00.041Z,95039.4
2023-03-26T01:24:02.119Z,95039
2023-03-26T01:25:04.014Z,95035.3
2023-03-26T01:26:05.940Z,95031.4
2023-03-26T01:27:08.027Z,95033.4
2023-03-26T01:28:10.134Z,95032.8
2023-03-26T01:29:12.036Z,95036.2
2023-03-26T01:30:13.981Z,95031
2023-03-26T01:31:15.747Z,95033.8
2023-03-26T01:32:18.061Z,95025.5
2023-03-26T01:33:20.641Z,95033.3
2023-03-26T01:34:22.838Z,95032.4
2023-03-26T01:35:24.949Z,95029.2
2023-03-26T01:36:27.227Z,95025.7
2023-03-26T01:37:29.168Z,95023.9
2023-03-26T01:38:31.289Z,95028.4
2023-03-26T01:39:33.395Z,95023.9
2023-03-26T01:40:35.341Z,95021.5
2023-03-26T01:41:37.507Z,95023.3
2023-03-26T01:42:39.409Z,95022.8
2023-03-26T01:43:41.309Z,95022.1
2023-03-26T01:44:43.393Z,95022.4
2023-03-26T01:45:45.284Z,95013.9
2023-03-26T01:46:47.626Z,95014.2
2023-03-26T01:47:49.972Z,95015.4
2023-03-26T01:48:52.206Z,95012.1
2023-03-26T01:49:54.290Z,95014.9
2023-03-26T01:50:56.443Z,95022.3
2023-03-26T01:51:58.676Z,95013.1
2023-03-26T01:53:00.843Z,95018
2023-03-26T01:54:02.967Z,95016
2023-03-26T01:55:05.168Z,95015.5
2023-03-26T01:56:07.111Z,95013
2023-03-26T01:57:09.256Z,95010.3
2023-03-26T01:58:11.242Z,95002.8
2023-03-26T01:59:13.385Z,95003
2023-03-26T02:00:15.284Z,95000.5
2023-03-26T02:01:17.589Z,95004.1
2023-03-26T02:02:19.950Z,95005.1
2023-03-26T02:03:22.618Z,95003.5
2023-03-26T02:04:24.857Z,95000.4
2023-03-26T02:05:26.839Z,94997.3
2023-03-26T02:06:28.936Z,94995.8
2023-03-26T02:07:31.120Z,94989.5
2023-03-26T02:08:33.235Z,94991.5
2023-03-26T02:09:34.979Z,94994.9
2023-03-26T02:10:36.701Z,94988.7
2023-03-26T02:11:38.408Z,94992
2023-03-26T02:12:40.517Z,94993.7
2023-03-26T02:13:42.436Z,94988.9
2023-03-26T02:14:44.586Z,94985.3
2023-03-26T02:15:46.758Z,94981.5
2023-03-26T02:16:48.824Z,94985.7
2023-03-26T02:17:51.175Z,94983.7
2023-03-26T02:18:53.406Z,94978.7
2023-03-26T02:19:55.557Z,94982.1
2023-03-26T02:20:57.469Z,94982.2
2023-03-26T02:21:59.368Z,94982.6
2023-03-26T02:23:01.584Z,94980
2023-03-26T02:24:04.769Z,94977.7
2023-03-26T02:25:06.874Z,94974.5
2023-03-26T02:26:08.786Z,94972.7
2023-03-26T02:27:10.876Z,94979.2
2023-03-26T02:28:12.767Z,94974.6
2023-03-26T02:29:14.966Z,94976.1
2023-03-26T02:30:16.963Z,94979.5
2023-03-26T02:31:19.183Z,94978.7
2023-03-26T02:32:21.406Z,94978.7
2023-03-26T02:33:23.397Z,94980.5
2023-03-26T02:34:25.473Z,94976.9
2023-03-26T02:35:27.888Z,94973.5
2023-03-26T02:36:30.506Z,94976.3
2023-03-26T02:37:32.429Z,94974.6
2023-03-26T02:38:34.608Z,94972.1
2023-03-26T02:39:36.761Z,94971.9
2023-03-26T02:40:38.671Z,94972.9
2023-03-26T02:41:40.614Z,94966.7
2023-03-26T02:42:42.794Z,94962.1
2023-03-26T02:43:44.929Z,94962.2
2023-03-26T02:44:47.033Z,94963.8
2023-03-26T02:45:48.674Z,94959.3
2023-03-26T02:46:50.823Z,94959.4
2023-03-26T02:47:53.124Z,94957.8
2023-03-26T02:48:55.283Z,94958.3
2023-03-26T02:49:57.416Z,94954.7
2023-03-26T02:50:59.507Z,94948.7
2023-03-26T02:52:01.622Z,94953.9
2023-03-26T02:53:03.519Z,94954.2
2023-03-26T02:54:05.803Z,94956.5
2023-03-26T02:55:07.770Z,94952.7
2023-03-26T02:56:09.875Z,94954.5
2023-03-26T02:57:12.171Z,94951.8
2023-03-26T02:58:14.340Z,94952.8
2023-03-26T02:59:16.433Z,94947.5
2023-03-26T03:00:18.571Z,94943.8
2023-03-26T03:01:20.829Z,94947.4
2023-03-26T03:02:22.920Z,94942.4
2023-03-26T03:03:25.345Z,94941
2023-03-26T03:04:27.516Z,94938
2023-03-26T03:05:29.702Z,94934.8
2023-03-26T03:06:31.605Z,94930.6
2023-03-26T03:07:33.464Z,94923.8
2023-03-26T03:08:35.483Z,94923.9
2023-03-26T03:09:37.471Z,94921.3
2023-03-26T03:10:39.608Z,94912.7
2023-03-26T03:11:41.507Z,94906
2023-03-26T03:12:43.406Z,94905.1
2023-03-26T03:13:45.500Z,94907.8
2023-03-26T03:14:47.447Z,94906.1
2023-03-26T03:15:49.511Z,94905.4
2023-03-26T03:16:51.184Z,94901
2023-03-26T03:17:53.327Z,94898
2023-03-26T03:18:58.788Z,94901.7
2023-03-26T03:20:00.701Z,94895.1
2023-03-26T03:21:02.581Z,94893.3
2023-03-26T03:22:04.809Z,94894.6
2023-03-26T03:23:06.702Z,94891.7
2023-03-26T03:24:08.582Z,94890
2023-03-26T03:25:10.770Z,94886.3
2023-03-26T03:26:12.671Z,94885.3
2023-03-26T03:27:14.559Z,94884.2
2023-03-26T03:28:16.626Z,94882.8
2023-03-26T03:29:18.492Z,94885.6
2023-03-26T03:30:20.595Z,94883.1
2023-03-26T03:31:22.790Z,94882.2
2023-03-26T03:32:25.322Z,94888.5
2023-03-26T03:33:27.289Z,94882.9
2023-03-26T03:34:29.410Z,94882.5
2023-03-26T03:35:31.640Z,94888.5
2023-03-26T03:36:33.793Z,94881.1
2023-03-26T03:37:35.717Z,94876
2023-03-26T03:38:37.828Z,94881.4
2023-03-26T03:39:39.908Z,94875.9
2023-03-26T03:40:42.268Z,94880.6
2023-03-26T03:41:44.402Z,94877.1
2023-03-26T03:42:46.480Z,94871.5
2023-03-26T03:43:47.976Z,94876
2023-03-26T03:44:50.065Z,94881.1
2023-03-26T03:45:52.149Z,94875.6
2023-03-26T03:46:54.420Z,94875.5
2023-03-26T03:47:56.651Z,94873.3
2023-03-26T03:48:58.862Z,94871.1
2023-03-26T03:50:01.117Z,94871
2023-03-26T03:51:03.043Z,94873
2023-03-26T03:52:05.211Z,94875.9
2023-03-26T03:53:07.357Z,94874.3
2023-03-26T03:54:09.446Z,94875.7
2023-03-26T03:55:11.617Z,94878.1
2023-03-26T03:56:13.777Z,94871.3
2023-03-26T03:57:15.702Z,94870.1
2023-03-26T03:58:17.403Z,94874.4
2023-03-26T03:59:19.500Z,94872.8
2023-03-26T04:00:21.439Z,94871.8
2023-03-26T04:01:23.613Z,94866.3
2023-03-26T04:02:26.552Z,94866.6
2023-03-26T04:04:34.079Z,94857.4
2023-03-26T04:05:36.157Z,94853.4
2023-03-26T04:06:38.037Z,94854.8
2023-03-26T04:07:40.017Z,94851.5
2023-03-26T04:08:41.743Z,94857.8
2023-03-26T04:09:43.815Z,94851.3
2023-03-26T04:10:45.896Z,94854.1
2023-03-26T04:11:47.874Z,94847.8
2023-03-26T04:12:50.021Z,94846.8
2023-03-26T04:13:51.773Z,94849
2023-03-26T04:14:53.869Z,94845.6
2023-03-26T04:15:57.393Z,94848.7
2023-03-26T04:17:00.302Z,94846.5
2023-03-26T04:18:02.580Z,94846.9
2023-03-26T04:19:04.711Z,94841.4
2023-03-26T04:20:06.817Z,94844.3
2023-03-26T04:21:08.931Z,94844.5
2023-03-26T04:22:10.849Z,94845.9
2023-03-26T04:23:12.722Z,94841.5
2023-03-26T04:24:14.839Z,94842
2023-03-26T04:25:16.595Z,94839.7
2023-03-26T04:26:18.284Z,94839.8
2023-03-26T04:27:20.509Z,94840.9
2023-03-26T04:28:22.615Z,94840.4
2023-03-26T04:29:24.689Z,94841.2
2023-03-26T04:30:26.631Z,94840.4
2023-03-26T04:31:28.887Z,94837.4
2023-03-26T04:32:31.445Z,94839.9
2023-03-26T04:33:33.611Z,94841.9
2023-03-26T04:34:35.686Z,94840.2
2023-03-26T04:35:37.838Z,94836
2023-03-26T04:36:39.792Z,94837
2023-03-26T04:37:41.190Z,94836.3
2023-03-26T04:38:43.311Z,94826.7
2023-03-26T04:39:45.426Z,94829.8
2023-03-26T04:40:47.390Z,94830.8
2023-03-26T04:41:49.536Z,94820
2023-03-26T04:42:51.743Z,94819.7
2023-03-26T04:43:53.845Z,94817.4
2023-03-26T04:44:55.937Z,94813.4
2023-03-26T04:45:58.366Z,94814.8
2023-03-26T04:47:00.661Z,94808.1
2023-03-26T04:48:03.081Z,94805.8
2023-03-26T04:49:05.410Z,94808
2023-03-26T04:50:15.131Z,94808.5
2023-03-26T04:51:17.176Z,94809.6
2023-03-26T04:52:19.303Z,94815.3
2023-03-26T04:53:21.506Z,94814.5
2023-03-26T04:54:23.618Z,94810.3
2023-03-26T04:55:25.615Z,94812.3
2023-03-26T04:56:27.570Z,94805.7
2023-03-26T04:57:29.661Z,94810.3
2023-03-26T04:58:31.668Z,94803.7
2023-03-26T04:59:33.607Z,94804.1
2023-03-26T05:00:35.547Z,94800.5
2023-03-26T05:01:38.036Z,94799.3
2023-03-26T05:02:40.000Z,94800.9
2023-03-26T05:03:42.218Z,94792.3
2023-03-26T05:04:44.561Z,94792.1
2023-03-26T05:05:46.757Z,94792.7
2023-03-26T05:06:48.815Z,94790.6
2023-03-26T05:07:50.944Z,94789.8
2023-03-26T05:08:52.862Z,94787.2
2023-03-26T05:09:54.949Z,94789.1
2023-03-26T05:10:58.102Z,94786.9
2023-03-26T05:12:00.103Z,94782.5
2023-03-26T05:13:02.024Z,94786.3
2023-03-26T05:14:04.268Z,94780.8
2023-03-26T05:15:06.200Z,94776.3
2023-03-26T05:16:08.488Z,94774.9
2023-03-26T05:17:10.608Z,94776.4
2023-03-26T05:18:12.694Z,94773.4
2023-03-26T05:19:14.767Z,94772.5
2023-03-26T05:20:16.871Z,94772.8
2023-03-26T05:21:18.944Z,94771.7
2023-03-26T05:22:20.639Z,94777
2023-03-26T05:23:22.538Z,94774.8
2023-03-26T05:24:24.224Z,94775.3
2023-03-26T05:25:26.560Z,94775
2023-03-26T05:26:28.681Z,94774.9
2023-03-26T05:27:30.567Z,94775.1
2023-03-26T05:28:32.276Z,94779
2023-03-26T05:29:34.461Z,94781.7
2023-03-26T05:30:36.568Z,94778.4
2023-03-26T05:31:38.654Z,94778.8
2023-03-26T05:32:41.100Z,94782.9
2023-03-26T05:33:43.847Z,94785.5
2023-03-26T05:34:45.964Z,94781.6
2023-03-26T05:35:48.365Z,94776.6
2023-03-26T05:36:50.531Z,94774.7
2023-03-26T05:37:52.485Z,94774.7
2023-03-26T05:38:54.384Z,94775.9
2023-03-26T05:39:56.535Z,94773.1
2023-03-26T05:40:58.656Z,94770.7
2023-03-26T05:42:00.763Z,94773.5
2023-03-26T05:43:02.875Z,94768.6
2023-03-26T05:44:04.575Z,94771.4
2023-03-26T05:45:06.776Z,94763.9
2023-03-26T05:46:09.205Z,94758
2023-03-26T05:47:11.012Z,94760.2
2023-03-26T05:48:13.154Z,94756.6
2023-03-26T05:49:15.251Z,94755.5
2023-03-26T05:50:17.369Z,94752.2
2023-03-26T05:51:19.451Z,94746.3
2023-03-26T05:52:21.361Z,94740.8
2023-03-26T05:53:23.464Z,94740.7
2023-03-26T05:54:25.542Z,94738.5
2023-03-26T05:55:27.432Z,94740.9
2023-03-26T05:56:28.941Z,94737.5
2023-03-26T05:57:31.057Z,94738.5
2023-03-26T05:58:32.979Z,94738.5
2023-03-26T05:59:34.722Z,94729.9
2023-03-26T06:00:36.948Z,94725.7
2023-03-26T06:01:39.081Z,94724.7
2023-03-26T06:02:41.373Z,94728.1
2023-03-26T06:03:43.535Z,94719.5
2023-03-26T06:04:45.784Z,94719.2
2023-03-26T06:05:47.980Z,94716.4
2023-03-26T06:06:49.871Z,94712.9
2023-03-26T06:07:51.748Z,94719.2
2023-03-26T06:09:58.863Z,94720
2023-03-26T06:11:01.047Z,94717.7
2023-03-26T06:12:02.565Z,94719.8
2023-03-26T06:13:04.694Z,94711.4
2023-03-26T06:14:06.797Z,94710.6
2023-03-26T06:15:08.532Z,94719.1
2023-03-26T06:17:15.508Z,94716.6
2023-03-26T06:18:17.614Z,94721.6
2023-03-26T06:19:19.690Z,94716.6
2023-03-26T06:20:21.190Z,94717.1
2023-03-26T06:21:23.273Z,94720.4
2023-03-26T06:22:25.371Z,94718.6
2023-03-26T06:23:27.268Z,94716.4
2023-03-26T06:24:29.337Z,94712.2
2023-03-26T06:25:31.223Z,94707.8
2023-03-26T06:26:32.938Z,94703.6
2023-03-26T06:27:35.024Z,94707.6
2023-03-26T06:28:37.158Z,94701.2
2023-03-26T06:29:39.265Z,94704.9
2023-03-26T06:30:41.446Z,94705.2
2023-03-26T06:31:43.199Z,94711.2
2023-03-26T06:32:45.598Z,94713.5
2023-03-26T06:33:47.624Z,94710.2
2023-03-26T06:34:49.716Z,94712.3
2023-03-26T06:35:51.977Z,94714.9
2023-03-26T06:36:54.153Z,94708.6
2023-03-26T06:37:56.257Z,94703.3
2023-03-26T06:38:58.145Z,94697.2
2023-03-26T06:39:59.849Z,94703.3
2023-03-26T06:41:01.827Z,94698.9
2023-03-26T06:42:03.931Z,94704.4
2023-03-26T06:44:10.906Z,94707.9
2023-03-26T06:45:13.011Z,94715.2
2023-03-26T06:46:15.282Z,94711.4
2023-03-26T06:47:17.500Z,94705
2023-03-26T06:48:19.610Z,94706.4
2023-03-26T06:49:21.760Z,94703.8
2023-03-26T06:50:23.868Z,94700.2
2023-03-26T06:51:25.900Z,94702.7
2023-03-26T06:52:28.029Z,94700
2023-03-26T06:53:29.843Z,94701.1
2023-03-26T06:54:31.788Z,94702.8
2023-03-26T06:55:33.924Z,94703.9
2023-03-26T06:56:36.211Z,94702.8
2023-03-26T06:57:38.394Z,94707.6
2023-03-26T06:58:40.527Z,94705.4
2023-03-26T06:59:42.457Z,94704.4
2023-03-26T07:00:44.520Z,94701
2023-03-26T07:01:48.026Z,94700.3
2023-03-26T07:02:50.377Z,94698.2
2023-03-26T07:03:52.780Z,94696.1
2023-03-26T07:04:54.809Z,94698.8
2023-03-26T07:05:56.931Z,94694.3
2023-03-26T07:06:59.017Z,94696.1
2023-03-26T07:08:00.925Z,94690.3
2023-03-26T07:09:02.880Z,94688.5
2023-03-26T07:10:04.991Z,94687
2023-03-26T07:11:07.106Z,94689.4
2023-03-26T07:12:09.196Z,94688.8
2023-03-26T07:13:10.962Z,94684
2023-03-26T07:14:13.093Z,94685.1
2023-03-26T07:15:15.034Z,94688.2
2023-03-26T07:16:17.224Z,94687.4
2023-03-26T07:17:19.396Z,94679.7
2023-03-26T07:18:21.328Z,94682.7
2023-03-26T07:19:23.161Z,94676.4
2023-03-26T07:20:25.123Z,94675.1
2023-03-26T07:21:27.286Z,94673.6
2023-03-26T07:22:29.383Z,94668
2023-03-26T07:23:31.475Z,94661
2023-03-26T07:24:33.576Z,94662.6
2023-03-26T07:25:36.082Z,94656.3
2023-03-26T07:26:38.160Z,94651.4
2023-03-26T07:27:40.137Z,94652.7
2023-03-26T07:28:41.889Z,94645.9
2023-03-26T07:29:48.817Z,94642.6
2023-03-26T07:30:50.770Z,94635.8
2023-03-26T07:31:53.026Z,94634.9
2023-03-26T07:32:55.137Z,94631.5
2023-03-26T07:33:57.172Z,94626.9
2023-03-26T07:34:59.143Z,94624.2
2023-03-26T07:36:01.366Z,94616.1
2023-03-26T07:37:03.630Z,94611.2
2023-03-26T07:38:05.763Z,94611.6
2023-03-26T07:39:07.475Z,94612.3
2023-03-26T07:40:09.169Z,94609.6
2023-03-26T07:41:11.106Z,94599.3
2023-03-26T07:42:12.824Z,94594.7
2023-03-26T07:43:14.547Z,94594
2023-03-26T07:44:16.495Z,94590.3
2023-03-26T07:45:18.611Z,94590.4
2023-03-26T07:46:20.889Z,94587.5
2023-03-26T07:47:23.003Z,94585.1
2023-03-26T07:48:25.138Z,94587.1
2023-03-26T07:49:27.331Z,94583.5
2023-03-26T07:50:29.173Z,94575.7
2023-03-26T07:51:31.309Z,94576.1
2023-03-26T07:52:33.405Z,94576.7
2023-03-26T07:53:35.275Z,94569.6
2023-03-26T07:54:37.215Z,94565.2
2023-03-26T07:55:39.314Z,94565.3
2023-03-26T07:56:41.967Z,94561.9
2023-03-26T07:57:44.650Z,94560.7
2023-03-26T07:58:46.574Z,94559.8
2023-03-26T07:59:48.642Z,94557.4
2023-03-26T08:00:50.750Z,94554.8
2023-03-26T08:01:52.859Z,94551.4
2023-03-26T08:02:55.288Z,94548.6
2023-03-26T08:03:58.317Z,94547.1
2023-03-26T08:05:05.269Z,94542
2023-03-26T08:06:07.737Z,94539.5
2023-03-26T08:07:09.639Z,94537.7
2023-03-26T08:08:11.982Z,94534.9
2023-03-26T08:09:13.878Z,94531.1
2023-03-26T08:10:16.070Z,94529.7
2023-03-26T08:11:18.191Z,94523.4
2023-03-26T08:12:20.326Z,94523.6
2023-03-26T08:13:22.455Z,94520.2
2023-03-26T08:14:24.342Z,94523.3
2023-03-26T08:15:26.612Z,94526.8
2023-03-26T08:16:28.627Z,94531.2
2023-03-26T08:17:32.797Z,94532.1
2023-03-26T08:18:34.981Z,94535.3
2023-03-26T08:19:36.875Z,94533.1
2023-03-26T08:20:38.578Z,94525.6
2023-03-26T08:21:40.578Z,94522.8
2023-03-26T08:22:42.693Z,94522.4
2023-03-26T08:24:49.585Z,94524.7
2023-03-26T08:25:51.705Z,94520.3
2023-03-26T08:26:53.827Z,94524.3
2023-03-26T08:27:55.936Z,94520.9
2023-03-26T08:28:58.042Z,94526.6
2023-03-26T08:30:00.169Z,94521.9
2023-03-26T08:31:02.265Z,94522.9
2023-03-26T08:32:04.439Z,94520.8
2023-03-26T08:33:06.761Z,94513.4
2023-03-26T08:34:08.963Z,94514.1
2023-03-26T08:35:11.086Z,94513.9
2023-03-26T08:36:12.643Z,94514.1
2023-03-26T08:37:14.883Z,94513.1
2023-03-26T08:38:16.865Z,94515.2
2023-03-26T08:39:18.771Z,94521.3
2023-03-26T08:40:20.482Z,94523.2
2023-03-26T08:41:22.382Z,94526.4
2023-03-26T08:42:24.477Z,94526
2023-03-26T08:43:26.602Z,94525.7
2023-03-26T08:44:28.723Z,94523.7
2023-03-26T08:45:30.634Z,94519.6
2023-03-26T08:46:32.884Z,94522
2023-03-26T08:47:35.186Z,94525
2023-03-26T08:48:36.787Z,94528.4
2023-03-26T08:49:38.892Z,94525.8
2023-03-26T08:50:40.987Z,94529
2023-03-26T08:51:42.921Z,94531.2
2023-03-26T08:52:45.075Z,94530.4
2023-03-26T08:53:47.204Z,94532.1
2023-03-26T08:54:49.146Z,94527.8
2023-03-26T08:55:51.249Z,94527
2023-03-26T08:56:53.739Z,94523.2
2023-03-26T08:57:55.808Z,94519.5
2023-03-26T08:58:57.763Z,94520.8
2023-03-26T09:01:06.366Z,94516.2
2023-03-26T09:02:08.949Z,94521.3
2023-03-26T09:03:11.293Z,94521.3
2023-03-26T09:04:13.378Z,94519.5
2023-03-26T09:05:15.561Z,94513.8
2023-03-26T09:06:17.662Z,94514.1
2023-03-26T09:07:19.574Z,94503.7
2023-03-26T09:08:21.798Z,94500.2
2023-03-26T09:09:23.628Z,94501.8
2023-03-26T09:10:25.750Z,94504.1
2023-03-26T09:11:27.709Z,94505.9
2023-03-26T09:12:29.639Z,94505.4
2023-03-26T09:13:31.775Z,94508.1
2023-03-26T09:14:33.689Z,94508.2
2023-03-26T09:15:35.852Z,94508.5
2023-03-26T09:16:37.952Z,94501.9
2023-03-26T09:17:40.446Z,94499.7
2023-03-26T09:18:42.586Z,94491.8
2023-03-26T09:19:44.546Z,94486.7
2023-03-26T09:20:46.485Z,94483.5
2023-03-26T09:21:48.612Z,94479.4
2023-03-26T09:22:50.720Z,94481.9
2023-03-26T09:23:52.557Z,94479.7
2023-03-26T09:24:54.318Z,94477.2
2023-03-26T09:25:56.437Z,94480.1
2023-03-26T09:26:58.654Z,94475
2023-03-26T09:28:00.769Z,94469.6
2023-03-26T09:29:02.714Z,94469.7
2023-03-26T09:30:04.807Z,94461.5
2023-03-26T09:31:07.046Z,94465.7
2023-03-26T09:32:09.142Z,94467.7
2023-03-26T09:33:11.069Z,94479
2023-03-26T09:34:12.996Z,94479.4
2023-03-26T09:35:15.401Z,94488
2023-03-26T09:36:17.673Z,94487.1
2023-03-26T09:37:19.644Z,94480.9
2023-03-26T09:38:21.769Z,94484.2
2023-03-26T09:39:23.750Z,94490.2
2023-03-26T09:40:26.038Z,94488.6
2023-03-26T09:41:28.132Z,94490.8
2023-03-26T09:42:30.044Z,94495.6
2023-03-26T09:43:32.126Z,94496.6
2023-03-26T09:44:34.242Z,94492.1
2023-03-26T09:45:36.552Z,94495.3
2023-03-26T09:46:38.375Z,94488.5
2023-03-26T09:47:40.805Z,94488.5
2023-03-26T09:48:42.972Z,94480.1
2023-03-26T09:49:44.871Z,94478
2023-03-26T09:50:46.882Z,94474.1
2023-03-26T09:51:48.817Z,94475.4
2023-03-26T09:52:50.781Z,94468.8
2023-03-26T09:53:52.915Z,94466.8
2023-03-26T09:54:55.078Z,94466.5
2023-03-26T09:55:58.040Z,94455.3
2023-03-26T09:57:00.184Z,94460.1
2023-03-26T09:58:02.671Z,94466.8
2023-03-26T09:59:04.852Z,94470.3
2023-03-26T10:00:07.251Z,94467.1
2023-03-26T10:01:09.599Z,94465.6
2023-03-26T10:02:11.850Z,94458.4
2023-03-26T10:03:14.286Z,94448.7
2023-03-26T10:04:16.711Z,94443.5
2023-03-26T10:05:18.696Z,94434.1
2023-03-26T10:06:20.659Z,94436.9
2023-03-26T10:07:22.561Z,94441.7
2023-03-26T10:08:24.482Z,94439.9
2023-03-26T10:09:26.581Z,94434.2
2023-03-26T10:10:28.777Z,94434.6
2023-03-26T10:11:30.519Z,94432.3
2023-03-26T10:12:32.654Z,94428
2023-03-26T10:13:34.794Z,94424.7
2023-03-26T10:14:36.730Z,94419.2
2023-03-26T10:15:38.820Z,94421.5
2023-03-26T10:16:41.088Z,94427.7
2023-03-26T10:17:43.320Z,94439.7
2023-03-26T10:18:45.505Z,94445.3
2023-03-26T10:19:47.600Z,94436.5
2023-03-26T10:20:49.701Z,94440.1
2023-03-26T10:21:52.023Z,94443.5
2023-03-26T10:22:53.763Z,94443.5
2023-03-26T10:23:55.670Z,94445.7
2023-03-26T10:24:57.832Z,94439.7
2023-03-26T10:26:00.011Z,94438.5
2023-03-26T10:28:07.098Z,94450.5
2023-03-26T10:29:08.995Z,94449.8
2023-03-26T10:30:10.987Z,94447.4
2023-03-26T10:31:13.279Z,94450.6
2023-03-26T10:32:15.249Z,94442.3
2023-03-26T10:33:17.267Z,94443.4
2023-03-26T10:35:24.360Z,94453.3
2023-03-26T10:36:26.499Z,94466.8
2023-03-26T10:37:28.632Z,94467.4
2023-03-26T10:38:30.807Z,94472
2023-03-26T10:40:37.894Z,94468.6
2023-03-26T10:41:40.116Z,94474.7
2023-03-26T10:42:42.280Z,94475.1
2023-03-26T10:44:51.068Z,94473.8
2023-03-26T10:45:53.345Z,94484.1
2023-03-26T10:46:55.559Z,94479.9
2023-03-26T10:47:57.735Z,94479.9
2023-03-26T10:48:59.938Z,94474.7
2023-03-26T10:50:02.075Z,94471.3
2023-03-26T10:51:04.218Z,94457.9
2023-03-26T10:52:06.355Z,94456.4
2023-03-26T10:53:08.212Z,94457.6
2023-03-26T10:54:10.309Z,94451.8
2023-03-26T10:55:12.220Z,94448.7
2023-03-26T10:56:14.460Z,94443.8
2023-03-26T10:57:16.998Z,94439.3
2023-03-26T10:58:19.282Z,94441.6
2023-03-26T10:59:21.188Z,94437
2023-03-26T11:00:23.163Z,94432.2
2023-03-26T11:01:25.539Z,94433.4
2023-03-26T11:03:32.712Z,94430.3
2023-03-26T11:04:34.620Z,94426.5
2023-03-26T11:05:36.846Z,94420.1
2023-03-26T11:06:39.035Z,94419.8
2023-03-26T11:07:40.964Z,94424.5
2023-03-26T11:08:43.104Z,94418.8
2023-03-26T11:09:45.227Z,94420.4
2023-03-26T11:10:47.323Z,94422
2023-03-26T11:11:49.419Z,94432
2023-03-26T11:12:51.626Z,94432.1
2023-03-26T11:13:53.758Z,94430.6
2023-03-26T11:14:55.881Z,94429.8
2023-03-26T11:15:57.972Z,94422.2
2023-03-26T11:16:59.932Z,94429.4
2023-03-26T11:18:02.291Z,94427.1
2023-03-26T11:20:09.235Z,94427.9
2023-03-26T11:22:16.389Z,94428.6
2023-03-26T11:23:18.379Z,94426.8
2023-03-26T11:24:20.331Z,94427.6
2023-03-26T11:25:22.254Z,94431.8
2023-03-26T11:26:24.406Z,94422.6
2023-03-26T11:27:27.769Z,94418.8
2023-03-26T11:28:29.732Z,94419.1
2023-03-26T11:29:34.504Z,94410.4
2023-03-26T11:30:36.641Z,94421.5
2023-03-26T11:31:38.935Z,94419.1
2023-03-26T11:32:41.310Z,94423.6
2023-03-26T11:34:48.449Z,94427.1
2023-03-26T11:35:50.828Z,94424.6
2023-03-26T11:36:53.079Z,94427.4
2023-03-26T11:37:55.957Z,94417.8
2023-03-26T11:38:57.892Z,94419.5
2023-03-26T11:39:59.862Z,94414.5
2023-03-26T11:41:02.032Z,94413.5
2023-03-26T11:42:04.032Z,94418.9
2023-03-26T11:43:06.154Z,94421.6
2023-03-26T11:44:08.429Z,94430.4
2023-03-26T11:45:10.604Z,94415.9
2023-03-26T11:46:12.725Z,94418.8
2023-03-26T11:47:14.708Z,94424.8
2023-03-26T11:48:16.786Z,94425.2
2023-03-26T11:49:18.722Z,94415.8
2023-03-26T11:50:20.426Z,94415.6
2023-03-26T11:51:22.355Z,94405.7
2023-03-26T11:52:25.534Z,94411.3
2023-03-26T11:53:27.714Z,94413.3
2023-03-26T11:54:29.586Z,94406.8
2023-03-26T11:55:31.861Z,94405.7
2023-03-26T11:56:34.321Z,94415.7
2023-03-26T11:57:36.363Z,94414.3
2023-03-26T11:58:38.518Z,94414.9
2023-03-26T12:00:45.679Z,94389.1
2023-03-26T12:01:47.955Z,94394.1
2023-03-26T12:02:50.282Z,94388.9
2023-03-26T12:03:52.448Z,94384.8
2023-03-26T12:04:54.567Z,94383
2023-03-26T12:05:56.713Z,94382.2
2023-03-26T12:06:58.645Z,94384.3
2023-03-26T12:08:00.802Z,94386.7
2023-03-26T12:09:02.916Z,94387.3
2023-03-26T12:11:10.053Z,94382.8
2023-03-26T12:12:11.959Z,94385.1
2023-03-26T12:13:14.082Z,94389
2023-03-26T12:14:16.184Z,94386.9
2023-03-26T12:15:18.269Z,94393.7
2023-03-26T12:16:20.813Z,94391.1
2023-03-26T12:18:28.066Z,94388.7
2023-03-26T12:19:29.786Z,94384.8
2023-03-26T12:20:31.903Z,94384.2
2023-03-26T12:21:33.854Z,94381.5
2023-03-26T12:22:35.964Z,94384.3
2023-03-26T12:23:38.139Z,94384.5
2023-03-26T12:24:40.033Z,94378.1
2023-03-26T12:25:41.736Z,94374.1
2023-03-26T12:26:43.740Z,94373.1
2023-03-26T12:27:45.848Z,94379.2
2023-03-26T12:28:47.764Z,94381.9
2023-03-26T12:29:49.464Z,94373.6
2023-03-26T12:30:51.344Z,94373.7
2023-03-26T12:31:53.685Z,94367.5
2023-03-26T12:32:56.132Z,94364
2023-03-26T12:34:00.276Z,94359
2023-03-26T12:35:02.379Z,94358
2023-03-26T12:36:04.623Z,94357.6
2023-03-26T12:37:06.815Z,94359.3
2023-03-26T12:38:08.947Z,94365
2023-03-26T12:45:41.249Z,94355.5
2023-03-26T12:48:53.884Z,94360.3
2023-03-26T12:49:55.944Z,94354.4
2023-03-26T12:50:59.120Z,94354.6
2023-03-26T12:52:01.089Z,94364.5
2023-03-26T12:53:03.198Z,94360.3
2023-03-26T12:54:05.052Z,94354.8
2023-03-26T12:56:12.322Z,94352
2023-03-26T12:57:14.647Z,94346.8
2023-03-26T12:58:16.552Z,94349.2
2023-03-26T12:59:18.506Z,94349
2023-03-26T13:00:20.495Z,94346.7
2023-03-26T13:01:22.885Z,94350.8
2023-03-26T13:02:25.174Z,94347.8
2023-03-26T13:03:27.738Z,94339.1
2023-03-26T13:04:30.168Z,94347.9
2023-03-26T13:05:32.105Z,94347.3
2023-03-26T13:07:38.984Z,94349.1